Elizabeth Ann — WCZ5348 — position and weather

sailwx.info

Track history (hours):
 
Tides and Currents Weather Stations Pressure Air Temp Water Temp Dewpoint Dewpoint Depression Visibility Wind Speed Wind Dir Waves Ship Positions

Elizabeth Ann

Owner: ATLANTIC GULF TOWING LLC, Chesapeake, VA. More information available from US FCC via Universal Licensing System and Coast Guard Vessel Documentation Center.

Last reported at 2017-Dec-17 15:00 UTC. Time now 2017-Dec-17 15:31 UTC.
Position N 39°43' W 075°32'.

Length 32 m; draft 4 m.

Type: Tug. MMSI: 366773150.

Date/timePositionNaut miles runAvg speedWind from/ knotsBaromVisibWave heightAir tempDewpointWater temp
2017-Dec-17 15:00N 39°43' W 075°32'0 0.0
2017-Dec-17 14:30N 39°43' W 075°32'0 0.2
2017-Dec-17 14:01N 39°43' W 075°31'0 0.0
2017-Dec-17 13:30N 39°43' W 075°31'1 1.2
2017-Dec-17 13:00N 39°43' W 075°31'4 7.5
2017-Dec-17 12:30N 39°46' W 075°28'1 1.2
2017-Dec-17 12:00N 39°47' W 075°28'1 1.1
2017-Dec-17 11:30N 39°46' W 075°28'1 3.0
2017-Dec-17 11:00N 39°45' W 075°29'2 3.9
2017-Dec-17 10:31N 39°43' W 075°30'3 5.2
2017-Dec-17 10:01N 39°41' W 075°31'3 5.1
2017-Dec-17 09:30N 39°39' W 075°33'3 5.1
2017-Dec-17 09:01N 39°36' W 075°34'3 6.1
2017-Dec-17 08:30N 39°34' W 075°33'3 5.8
2017-Dec-17 08:00N 39°31' W 075°33'3 5.8
2017-Dec-17 07:30N 39°28' W 075°34'3 6.0
2017-Dec-17 07:00N 39°25' W 075°31'3 6.2
2017-Dec-17 06:30N 39°23' W 075°29'3 6.6
2017-Dec-17 06:01N 39°21' W 075°26'3 6.7
2017-Dec-17 05:30N 39°18' W 075°23'3 7.0
2017-Dec-17 05:00N 39°16' W 075°20'4 7.2
2017-Dec-17 04:30N 39°13' W 075°17'4 7.4
2017-Dec-17 04:00N 39°09' W 075°15'4 7.5
2017-Dec-17 03:31N 39°06' W 075°12'4 7.5
2017-Dec-17 03:00N 39°03' W 075°10'4 7.2
2017-Dec-17 02:30N 38°59' W 075°09'1 2.5
2017-Dec-17 02:00N 38°58' W 075°10'2 4.0
2017-Dec-17 01:30N 39°00' W 075°09'3 5.2
2017-Dec-17 01:01N 39°03' W 075°10'3 5.0
2017-Dec-17 00:30N 39°05' W 075°11'2 4.6
2017-Dec-17 00:00N 39°07' W 075°13'2 4.6
2017-Dec-16 23:30N 39°09' W 075°14'2 4.6
2017-Dec-16 23:00N 39°11' W 075°16'3 5.0
2017-Dec-16 22:30N 39°13' W 075°17'3 6.0
2017-Dec-16 22:00N 39°15' W 075°20'3 6.5
2017-Dec-16 21:30N 39°18' W 075°23'4 7.4
2017-Dec-16 21:00N 39°20' W 075°26'4 7.7
2017-Dec-16 20:30N 39°23' W 075°29'4 7.9
2017-Dec-16 20:00N 39°26' W 075°32'4 7.1
2017-Dec-16 19:30N 39°30' W 075°34'4 7.5
2017-Dec-16 19:00N 39°33' W 075°33'4 7.3
2017-Dec-16 18:30N 39°37' W 075°35'3 6.2
2017-Dec-16 18:00N 39°39' W 075°33'3 6.1
2017-Dec-16 17:30N 39°42' W 075°31'3 5.5
2017-Dec-16 17:00N 39°45' W 075°30'2 4.8
2017-Dec-16 16:31N 39°47' W 075°28'2 4.1
2017-Dec-16 16:01N 39°48' W 075°26'2 4.3
2017-Dec-16 15:30N 39°49' W 075°23'2 3.6
2017-Dec-16 15:01N 39°50' W 075°22'2 3.4
2017-Dec-16 14:30N 39°51' W 075°20'1 1.9
2017-Dec-16 14:00N 39°51' W 075°21'1 1.8
2017-Dec-16 13:29N 39°50' W 075°22'3 6.5
2017-Dec-16 12:58N 39°48' W 075°25'2 4.2
2017-Dec-16 12:26N 39°47' W 075°27'4 9.8
2017-Dec-16 11:59N 39°43' W 075°30'3 5.3
2017-Dec-16 11:30N 39°40' W 075°31'4 8.1
2017-Dec-16 11:00N 39°37' W 075°35'4 8.0
2017-Dec-16 10:30N 39°34' W 075°33'4 7.3
2017-Dec-16 10:00N 39°30' W 075°33'3 6.6
2017-Dec-16 09:30N 39°27' W 075°33'3 6.6
2017-Dec-16 09:00N 39°24' W 075°30'3 5.9
2017-Dec-16 08:30N 39°22' W 075°28'3 5.7
2017-Dec-16 07:59N 39°20' W 075°25'2 4.9
2017-Dec-16 07:30N 39°18' W 075°23'3 5.1
2017-Dec-16 07:00N 39°16' W 075°21'3 6.1
2017-Dec-16 06:27N 39°14' W 075°18'3 6.5
2017-Dec-16 05:58N 39°11' W 075°16'2 4.9
2017-Dec-16 05:30N 39°09' W 075°15'4 6.9
2017-Dec-16 04:59N 39°06' W 075°12'2 4.6
2017-Dec-16 04:30N 39°04' W 075°11'3 5.2
2017-Dec-16 04:00N 39°02' W 075°09'3 5.9
2017-Dec-16 03:30N 38°59' W 075°10'1 1.0
2017-Dec-16 02:57N 38°59' W 075°09'2 4.4
2017-Dec-16 02:30N 39°00' W 075°09'3 6.3
2017-Dec-16 02:00N 39°03' W 075°10'3 5.9
2017-Dec-16 01:30N 39°06' W 075°12'3 5.4
2017-Dec-16 01:00N 39°08' W 075°14'2 4.9
2017-Dec-16 00:30N 39°10' W 075°16'2 4.3
2017-Dec-16 00:00N 39°12' W 075°17'2 4.3
2017-Dec-15 23:30N 39°14' W 075°18'2 4.6
2017-Dec-15 23:00N 39°16' W 075°20'2 4.7
2017-Dec-15 22:30N 39°17' W 075°22'3 5.2
2017-Dec-15 22:00N 39°19' W 075°25'3 6.0
2017-Dec-15 21:30N 39°22' W 075°27'3 6.8
2017-Dec-15 21:00N 39°24' W 075°30'4 7.3
2017-Dec-15 20:30N 39°27' W 075°33'4 7.5
2017-Dec-15 20:00N 39°31' W 075°33'4 7.4
2017-Dec-15 19:30N 39°34' W 075°33'4 7.3
2017-Dec-15 19:00N 39°38' W 075°34'4 7.3
2017-Dec-15 18:30N 39°41' W 075°31'4 7.1
2017-Dec-15 18:00N 39°44' W 075°30'3 6.0
2017-Dec-15 17:30N 39°47' W 075°28'1 2.7
2017-Dec-15 17:00N 39°47' W 075°27'0 0.1
2017-Dec-15 16:30N 39°47' W 075°27'0 0.1
2017-Dec-15 16:00N 39°47' W 075°27'0 0.0
2017-Dec-15 15:30N 39°47' W 075°27'0 0.0
2017-Dec-15 15:00N 39°47' W 075°27'0 0.1
2017-Dec-15 14:30N 39°47' W 075°27'1 2.3
2017-Dec-15 14:00N 39°46' W 075°28'0 0.4
2017-Dec-15 13:31N 39°47' W 075°28'1 3.0
2017-Dec-15 13:00N 39°46' W 075°29'3 6.4
2017-Dec-15 12:30N 39°43' W 075°31'3 6.6
2017-Dec-15 12:00N 39°40' W 075°32'3 6.5
2017-Dec-15 11:30N 39°37' W 075°35'3 6.5
2017-Dec-15 11:00N 39°34' W 075°33'3 5.8
2017-Dec-15 10:30N 39°31' W 075°33'3 5.6
2017-Dec-15 10:00N 39°28' W 075°34'3 5.2
2017-Dec-15 09:30N 39°26' W 075°32'3 5.5
2017-Dec-15 09:00N 39°24' W 075°30'3 5.4
2017-Dec-15 08:30N 39°22' W 075°28'3 5.3
2017-Dec-15 08:00N 39°20' W 075°25'2 5.0
2017-Dec-15 07:30N 39°18' W 075°23'2 4.8
2017-Dec-15 07:00N 39°17' W 075°21'2 4.9
2017-Dec-15 06:30N 39°15' W 075°19'2 4.5
2017-Dec-15 06:00N 39°13' W 075°17'2 4.4
2017-Dec-15 05:30N 39°11' W 075°16'2 4.5
2017-Dec-15 05:00N 39°09' W 075°15'2 4.7
2017-Dec-15 04:30N 39°07' W 075°13'2 4.6
2017-Dec-15 04:01N 39°05' W 075°11'7 4.5
2017-Dec-15 02:28N 38°58' W 075°09'0 0.0
2017-Dec-15 00:20N 38°58' W 075°09'25 4.3
2017-Dec-14 18:31N 39°20' W 075°25'3 6.5
2017-Dec-14 18:00N 39°22' W 075°28'3 6.4
2017-Dec-14 17:30N 39°25' W 075°31'4 7.1
2017-Dec-14 17:00N 39°28' W 075°34'3 6.6
2017-Dec-14 16:31N 39°31' W 075°33'3 6.5
2017-Dec-14 16:01N 39°34' W 075°33'5 5.1
2017-Dec-14 15:00N 39°39' W 075°33'2 4.9
2017-Dec-14 14:30N 39°41' W 075°31'2 4.6
2017-Dec-14 14:00N 39°43' W 075°30'2 4.0
2017-Dec-14 13:30N 39°45' W 075°29'2 3.6
2017-Dec-14 13:00N 39°47' W 075°28'1 1.2
2017-Dec-14 12:30N 39°47' W 075°27'0 0.3
2017-Dec-14 12:00N 39°47' W 075°27'3 5.4
2017-Dec-14 11:30N 39°49' W 075°24'2 4.6
2017-Dec-14 11:00N 39°50' W 075°22'2 3.1
2017-Dec-14 10:30N 39°51' W 075°20'0 0.0
2017-Dec-14 10:00N 39°51' W 075°20'0 0.0
2017-Dec-14 09:30N 39°51' W 075°20'0 0.0
2017-Dec-14 09:01N 39°51' W 075°20'0 0.0
2017-Dec-14 08:30N 39°51' W 075°20'0 0.0
2017-Dec-14 08:01N 39°51' W 075°20'0 0.0
2017-Dec-14 07:30N 39°51' W 075°20'0 0.0
2017-Dec-14 07:00N 39°51' W 075°20'0 0.0
2017-Dec-14 06:31N 39°51' W 075°20'0 0.0
2017-Dec-14 06:00N 39°51' W 075°20'0 0.0
2017-Dec-14 05:30N 39°51' W 075°20'0 0.0
2017-Dec-14 05:00N 39°51' W 075°20'0 0.0
2017-Dec-14 04:30N 39°51' W 075°20'0 0.0
2017-Dec-14 04:00N 39°51' W 075°20'0 0.0
2017-Dec-14 03:30N 39°51' W 075°20'0 0.0
2017-Dec-14 03:00N 39°51' W 075°20'0 0.0
2017-Dec-14 02:30N 39°51' W 075°20'0 0.0
2017-Dec-14 02:00N 39°51' W 075°20'0 0.0
2017-Dec-14 01:30N 39°51' W 075°20'0 0.0
2017-Dec-14 01:00N 39°51' W 075°20'0 0.0
2017-Dec-14 00:30N 39°51' W 075°20'0 0.0
2017-Dec-14 00:00N 39°51' W 075°20'0 0.0
2017-Dec-13 23:30N 39°51' W 075°20'0 0.0
2017-Dec-13 23:00N 39°51' W 075°20'0 0.0
2017-Dec-13 22:30N 39°51' W 075°20'0 0.0
2017-Dec-13 22:00N 39°51' W 075°20'0 0.0
2017-Dec-13 21:30N 39°51' W 075°20'0 0.0
2017-Dec-13 21:01N 39°51' W 075°20'0 0.0
2017-Dec-13 20:30N 39°51' W 075°20'0 0.0
2017-Dec-13 20:00N 39°51' W 075°20'0 0.0
2017-Dec-13 19:30N 39°51' W 075°20'0 0.0
2017-Dec-13 19:00N 39°51' W 075°20'0 0.2
2017-Dec-13 18:31N 39°51' W 075°20'1 1.2
2017-Dec-13 18:00N 39°51' W 075°19'0 0.1
2017-Dec-13 17:30N 39°51' W 075°19'0 0.0
2017-Dec-13 17:00N 39°51' W 075°19'0 0.0
2017-Dec-13 16:30N 39°51' W 075°19'1 1.2
2017-Dec-13 16:00N 39°51' W 075°20'2 4.6
2017-Dec-13 15:30N 39°50' W 075°23'3 5.7
2017-Dec-13 15:01N 39°48' W 075°25'2 4.6
2017-Dec-13 14:30N 39°47' W 075°28'3 6.2
2017-Dec-13 14:00N 39°44' W 075°30'3 6.3
2017-Dec-13 13:30N 39°41' W 075°31'3 6.4
2017-Dec-13 13:00N 39°38' W 075°34'3 5.9
2017-Dec-13 12:30N 39°35' W 075°34'3 6.3
2017-Dec-13 12:00N 39°32' W 075°33'4 7.2
2017-Dec-13 11:30N 39°29' W 075°34'3 6.5
2017-Dec-13 11:00N 39°26' W 075°32'3 6.5
2017-Dec-13 10:30N 39°24' W 075°29'3 7.0
2017-Dec-13 10:00N 39°21' W 075°26'4 7.0
2017-Dec-13 09:30N 39°18' W 075°23'4 7.1
2017-Dec-13 09:00N 39°16' W 075°20'3 5.7
2017-Dec-13 08:30N 39°13' W 075°18'3 6.7
2017-Dec-13 08:00N 39°10' W 075°16'3 5.6
2017-Dec-13 07:30N 39°08' W 075°14'2 5.0
2017-Dec-13 07:00N 39°06' W 075°12'6 1.8
2017-Dec-13 03:27N 39°00' W 075°09'2 3.0
2017-Dec-13 02:57N 39°02' W 075°10'3 6.0
2017-Dec-13 02:30N 39°04' W 075°11'3 6.7
2017-Dec-13 02:00N 39°07' W 075°13'3 6.3
2017-Dec-13 01:30N 39°10' W 075°15'3 5.9
2017-Dec-13 01:00N 39°12' W 075°17'3 5.4
2017-Dec-13 00:30N 39°15' W 075°19'2 4.9
2017-Dec-13 00:00N 39°16' W 075°21'2 4.7
2017-Dec-12 23:30N 39°18' W 075°23'2 4.7
2017-Dec-12 23:00N 39°20' W 075°25'2 4.3
2017-Dec-12 22:30N 39°21' W 075°27'2 4.3
2017-Dec-12 22:00N 39°23' W 075°29'2 4.3
2017-Dec-12 21:30N 39°25' W 075°31'2 4.3
2017-Dec-12 21:00N 39°26' W 075°32'2 4.4
2017-Dec-12 20:30N 39°28' W 075°34'2 4.3
2017-Dec-12 20:00N 39°30' W 075°33'2 5.0
2017-Dec-12 19:30N 39°33' W 075°33'2 4.9
2017-Dec-12 19:00N 39°35' W 075°34'3 5.2
2017-Dec-12 18:30N 39°38' W 075°35'3 5.7
2017-Dec-12 18:00N 39°40' W 075°32'3 6.2
2017-Dec-12 17:31N 39°43' W 075°31'3 6.5
2017-Dec-12 17:00N 39°46' W 075°29'2 3.4
2017-Dec-12 16:30N 39°47' W 075°27'4 8.8
2017-Dec-12 16:00N 39°49' W 075°23'2 4.1
2017-Dec-12 15:25N 39°51' W 075°20'1 1.2
2017-Dec-12 15:00N 39°51' W 075°21'2 3.7
2017-Dec-12 14:28N 39°49' W 075°23'4 8.9
2017-Dec-12 13:59N 39°47' W 075°27'1 1.9
2017-Dec-12 13:30N 39°46' W 075°28'4 8.8
2017-Dec-12 13:00N 39°42' W 075°31'3 6.9
2017-Dec-12 12:30N 39°39' W 075°33'2 4.6
2017-Dec-12 12:00N 39°38' W 075°35'3 6.7
2017-Dec-12 11:30N 39°34' W 075°33'3 6.5
2017-Dec-12 11:00N 39°31' W 075°33'3 6.8
2017-Dec-12 10:30N 39°28' W 075°34'4 7.2
2017-Dec-12 10:00N 39°25' W 075°31'4 7.5
2017-Dec-12 09:30N 39°22' W 075°28'4 7.5
2017-Dec-12 08:59N 39°19' W 075°24'5 9.2
2017-Dec-12 08:27N 39°16' W 075°20'3 6.2
2017-Dec-12 07:58N 39°13' W 075°18'4 7.0
2017-Dec-12 07:27N 39°10' W 075°16'3 6.3
2017-Dec-12 06:55N 39°07' W 075°13'3 6.1
2017-Dec-12 06:28N 39°05' W 075°11'3 6.0
2017-Dec-12 05:59N 39°02' W 075°10'3 6.2
2017-Dec-12 05:30N 38°59' W 075°09'1 2.1
2017-Dec-12 04:55N 38°58' W 075°10'2 2.6
2017-Dec-12 04:13N 39°00' W 075°09'1 2.9
2017-Dec-12 03:55N 39°01' W 075°09'1 3.6
2017-Dec-12 03:30N 39°02' W 075°10'2 4.4
2017-Dec-12 03:00N 39°04' W 075°11'3 5.6
2017-Dec-12 02:30N 39°07' W 075°13'3 5.7
2017-Dec-12 02:00N 39°09' W 075°15'3 5.9
2017-Dec-12 01:30N 39°12' W 075°17'3 5.9
2017-Dec-12 01:00N 39°14' W 075°18'3 5.6
2017-Dec-12 00:30N 39°16' W 075°21'3 5.2
2017-Dec-12 00:00N 39°18' W 075°23'2 4.9
2017-Dec-11 23:30N 39°20' W 075°25'2 4.5
2017-Dec-11 23:00N 39°22' W 075°27'2 4.2
2017-Dec-11 22:30N 39°23' W 075°29'2 4.0
2017-Dec-11 22:00N 39°25' W 075°31'2 3.8
2017-Dec-11 21:30N 39°26' W 075°32'2 3.6
2017-Dec-11 21:00N 39°28' W 075°34'2 3.8
2017-Dec-11 20:30N 39°30' W 075°34'2 4.2
2017-Dec-11 20:00N 39°31' W 075°33'2 4.7
2017-Dec-11 19:30N 39°34' W 075°33'3 5.2
2017-Dec-11 19:00N 39°36' W 075°34'3 5.1
2017-Dec-11 18:30N 39°39' W 075°33'3 6.0
2017-Dec-11 18:00N 39°41' W 075°31'3 6.5
2017-Dec-11 17:30N 39°44' W 075°30'3 5.5
2017-Dec-11 17:00N 39°46' W 075°28'1 1.4
2017-Dec-11 16:30N 39°47' W 075°27'0 0.0
2017-Dec-11 16:01N 39°47' W 075°27'0 0.0
2017-Dec-11 15:30N 39°47' W 075°27'0 0.0
2017-Dec-11 15:01N 39°47' W 075°27'1 1.2
2017-Dec-11 14:30N 39°47' W 075°27'0 0.0
2017-Dec-11 14:01N 39°47' W 075°27'0 0.0
2017-Dec-11 13:30N 39°47' W 075°27'0 0.0
2017-Dec-11 13:00N 39°47' W 075°27'1 1.5
2017-Dec-11 12:31N 39°47' W 075°27'0 0.1
2017-Dec-11 12:00N 39°47' W 075°27'0 0.0
2017-Dec-11 11:30N 39°47' W 075°27'0 0.0
2017-Dec-11 11:00N 39°47' W 075°27'0 0.0
2017-Dec-11 10:30N 39°47' W 075°27'0 0.0
2017-Dec-11 10:00N 39°47' W 075°27'0 0.2
2017-Dec-11 09:30N 39°47' W 075°27'1 1.1
2017-Dec-11 09:00N 39°47' W 075°27'0 0.3
2017-Dec-11 08:31N 39°47' W 075°27'0 0.9
2017-Dec-11 08:00N 39°47' W 075°27'0 0.2
2017-Dec-11 07:30N 39°47' W 075°27'0 0.1
2017-Dec-11 07:00N 39°47' W 075°27'0 0.0
2017-Dec-11 06:30N 39°47' W 075°27'0 0.0
2017-Dec-11 06:00N 39°47' W 075°27'0 0.0
2017-Dec-11 05:30N 39°47' W 075°27'0 0.0
2017-Dec-11 05:00N 39°47' W 075°27'1 1.8
2017-Dec-11 04:30N 39°47' W 075°26'3 6.0
2017-Dec-11 04:00N 39°49' W 075°23'0 0.8
2017-Dec-11 03:30N 39°49' W 075°23'2 3.6
2017-Dec-11 03:00N 39°48' W 075°25'1 1.7
2017-Dec-11 02:31N 39°48' W 075°26'2 3.8
2017-Dec-11 02:00N 39°47' W 075°27'1 1.6
2017-Dec-11 01:31N 39°46' W 075°28'1 1.8
2017-Dec-11 01:01N 39°47' W 075°28'2 4.0
2017-Dec-11 00:30N 39°48' W 075°25'2 4.5
2017-Dec-11 00:00N 39°49' W 075°23'2 4.0
2017-Dec-10 23:30N 39°51' W 075°21'1 1.5
2017-Dec-10 23:00N 39°51' W 075°20'0 0.1
2017-Dec-10 22:30N 39°51' W 075°20'3 6.4
2017-Dec-10 22:00N 39°49' W 075°23'0 0.3
2017-Dec-10 21:30N 39°49' W 075°23'2 3.5
2017-Dec-10 21:01N 39°48' W 075°25'3 6.3
2017-Dec-10 20:30N 39°46' W 075°28'4 8.4
2017-Dec-10 20:00N 39°42' W 075°31'5 9.2
2017-Dec-10 19:30N 39°38' W 075°34'4 8.5
2017-Dec-10 19:00N 39°34' W 075°33'4 8.5
2017-Dec-10 18:30N 39°30' W 075°33'4 8.1
2017-Dec-10 18:00N 39°26' W 075°32'4 7.9
2017-Dec-10 17:30N 39°23' W 075°29'4 7.3
2017-Dec-10 17:00N 39°20' W 075°26'4 7.1
2017-Dec-10 16:30N 39°18' W 075°23'3 6.9
2017-Dec-10 16:00N 39°15' W 075°19'3 6.6
2017-Dec-10 15:30N 39°12' W 075°17'3 7.1
2017-Dec-10 15:01N 39°09' W 075°15'4 7.1
2017-Dec-10 14:30N 39°07' W 075°12'3 6.6
2017-Dec-10 14:00N 39°03' W 075°10'3 6.8
2017-Dec-10 13:31N 39°00' W 075°09'2 4.3
2017-Dec-10 13:00N 38°58' W 075°10'1 1.2
2017-Dec-10 12:30N 38°59' W 075°09'1 1.6
2017-Dec-10 12:00N 38°58' W 075°09'1 1.8
2017-Dec-10 11:30N 38°59' W 075°09'2 4.6
2017-Dec-10 11:00N 39°01' W 075°09'3 6.0
2017-Dec-10 10:30N 39°04' W 075°11'3 5.9
2017-Dec-10 10:01N 39°07' W 075°13'3 5.7
2017-Dec-10 09:30N 39°09' W 075°15'3 5.5
2017-Dec-10 09:00N 39°11' W 075°17'2 4.9
2017-Dec-10 08:30N 39°14' W 075°18'2 4.2
2017-Dec-10 08:00N 39°15' W 075°20'2 3.9
2017-Dec-10 07:30N 39°17' W 075°21'2 3.8
2017-Dec-10 07:01N 39°18' W 075°23'2 4.1
2017-Dec-10 06:31N 39°20' W 075°25'2 3.7
2017-Dec-10 06:00N 39°21' W 075°26'2 4.1
2017-Dec-10 05:30N 39°22' W 075°28'2 4.1
2017-Dec-10 05:01N 39°24' W 075°30'2 4.8
2017-Dec-10 04:30N 39°26' W 075°32'3 5.5
2017-Dec-10 04:00N 39°28' W 075°34'3 6.0
2017-Dec-10 03:30N 39°31' W 075°33'3 5.9
2017-Dec-10 03:00N 39°34' W 075°33'3 6.2
2017-Dec-10 02:30N 39°37' W 075°35'3 5.8
2017-Dec-10 02:00N 39°39' W 075°33'3 6.0
2017-Dec-10 01:30N 39°42' W 075°31'3 5.6
2017-Dec-10 01:00N 39°45' W 075°30'2 4.9
2017-Dec-10 00:31N 39°47' W 075°28'0 0.4
2017-Dec-10 00:00N 39°47' W 075°27'1 1.7
2017-Dec-09 23:30N 39°47' W 075°27'0 0.0
2017-Dec-09 23:00N 39°47' W 075°27'0 0.0
2017-Dec-09 22:30N 39°47' W 075°27'0 0.0
2017-Dec-09 22:00N 39°47' W 075°27'0 0.0
2017-Dec-09 21:30N 39°47' W 075°27'0 0.0
2017-Dec-09 21:00N 39°47' W 075°27'1 1.0
2017-Dec-09 20:30N 39°47' W 075°27'0 0.0
2017-Dec-09 20:00N 39°47' W 075°27'0 0.1
2017-Dec-09 19:31N 39°47' W 075°27'0 0.4
2017-Dec-09 19:00N 39°47' W 075°27'0 0.0
2017-Dec-09 18:30N 39°47' W 075°27'0 0.0
2017-Dec-09 18:00N 39°47' W 075°27'0 0.0
2017-Dec-09 17:30N 39°47' W 075°27'0 0.0
2017-Dec-09 17:00N 39°47' W 075°27'0 0.0
2017-Dec-09 16:30N 39°47' W 075°27'0 0.0
2017-Dec-09 16:00N 39°47' W 075°27'0 0.0
2017-Dec-09 15:30N 39°47' W 075°27'0 0.0
2017-Dec-09 15:00N 39°47' W 075°27'0 0.3
2017-Dec-09 14:30N 39°47' W 075°27'0 0.0
2017-Dec-09 14:00N 39°47' W 075°27'0 0.0
2017-Dec-09 13:31N 39°47' W 075°27'0 0.0
2017-Dec-09 13:00N 39°47' W 075°27'0 0.0
2017-Dec-09 12:30N 39°47' W 075°27'0 0.0
2017-Dec-09 12:01N 39°47' W 075°27'0 0.2
2017-Dec-09 11:31N 39°47' W 075°27'0 0.1
2017-Dec-09 11:00N 39°47' W 075°27'0 0.1
2017-Dec-09 10:30N 39°47' W 075°27'0 0.0
2017-Dec-09 10:00N 39°47' W 075°27'0 0.0
2017-Dec-09 09:30N 39°47' W 075°27'0 0.0
2017-Dec-09 09:00N 39°47' W 075°27'0 0.0
2017-Dec-09 08:30N 39°47' W 075°27'0 0.0
2017-Dec-09 08:01N 39°47' W 075°27'0 0.0
2017-Dec-09 07:31N 39°47' W 075°27'0 0.0
2017-Dec-09 07:00N 39°47' W 075°27'0 0.0
2017-Dec-09 06:31N 39°47' W 075°27'0 0.0
2017-Dec-09 06:01N 39°47' W 075°27'0 0.1
2017-Dec-09 05:30N 39°47' W 075°27'0 0.2
2017-Dec-09 05:00N 39°47' W 075°27'0 0.0
2017-Dec-09 04:31N 39°47' W 075°27'0 0.0
2017-Dec-09 04:00N 39°47' W 075°27'0 0.0
2017-Dec-09 03:30N 39°47' W 075°27'0 0.0
2017-Dec-09 03:00N 39°47' W 075°27'0 0.0
2017-Dec-09 02:30N 39°47' W 075°27'0 0.0
2017-Dec-09 02:00N 39°47' W 075°27'0 0.0
2017-Dec-09 01:30N 39°47' W 075°27'0 0.0
2017-Dec-09 01:00N 39°47' W 075°27'0 0.0
2017-Dec-09 00:31N 39°47' W 075°27'0 0.0
2017-Dec-09 00:00N 39°47' W 075°27'0 0.0
2017-Dec-08 23:30N 39°47' W 075°27'0 0.1
2017-Dec-08 23:00N 39°47' W 075°27'0 0.2
2017-Dec-08 22:30N 39°47' W 075°27'0 0.0
2017-Dec-08 22:00N 39°47' W 075°27'0 0.0
2017-Dec-08 21:31N 39°47' W 075°27'0 0.0
2017-Dec-08 21:00N 39°47' W 075°27'0 0.0
2017-Dec-08 20:30N 39°47' W 075°27'0 0.0
2017-Dec-08 20:00N 39°47' W 075°27'0 0.0
2017-Dec-08 19:30N 39°47' W 075°27'0 0.0
2017-Dec-08 19:00N 39°47' W 075°27'0 0.0
2017-Dec-08 18:31N 39°47' W 075°27'0 0.0
2017-Dec-08 18:01N 39°47' W 075°27'0 0.0
2017-Dec-08 17:31N 39°47' W 075°27'0 0.0
2017-Dec-08 17:01N 39°47' W 075°27'0 0.2
2017-Dec-08 16:30N 39°47' W 075°27'0 0.1
2017-Dec-08 16:00N 39°47' W 075°27'0 0.0
2017-Dec-08 15:30N 39°47' W 075°27'0 0.0
2017-Dec-08 15:01N 39°47' W 075°27'0 0.3
2017-Dec-08 14:30N 39°47' W 075°27'0 0.2
2017-Dec-08 14:01N 39°47' W 075°27'2 4.0
2017-Dec-08 13:30N 39°48' W 075°25'3 5.8
2017-Dec-08 13:00N 39°50' W 075°22'2 4.2
2017-Dec-08 12:30N 39°51' W 075°20'1 1.9
2017-Dec-08 12:00N 39°51' W 075°21'2 4.1
2017-Dec-08 11:30N 39°49' W 075°23'2 4.7
2017-Dec-08 11:00N 39°48' W 075°26'1 2.1
2017-Dec-08 10:30N 39°47' W 075°27'0 0.0
2017-Dec-08 10:00N 39°47' W 075°27'0 0.0
2017-Dec-08 09:30N 39°47' W 075°27'0 0.0
2017-Dec-08 09:01N 39°47' W 075°27'0 0.0
2017-Dec-08 08:30N 39°47' W 075°27'0 0.0
2017-Dec-08 08:00N 39°47' W 075°27'0 0.0
2017-Dec-08 07:30N 39°47' W 075°27'0 0.0
2017-Dec-08 07:00N 39°47' W 075°27'0 0.0
2017-Dec-08 06:31N 39°47' W 075°27'0 0.0
2017-Dec-08 06:00N 39°47' W 075°27'0 0.0
2017-Dec-08 05:30N 39°47' W 075°27'0 0.0
2017-Dec-08 05:00N 39°47' W 075°27'0 0.0
2017-Dec-08 04:31N 39°47' W 075°27'0 0.0
2017-Dec-08 04:00N 39°47' W 075°27'0 0.0
2017-Dec-08 03:31N 39°47' W 075°27'0 0.0
2017-Dec-08 03:00N 39°47' W 075°27'0 0.0
2017-Dec-08 02:30N 39°47' W 075°27'0 0.0
2017-Dec-08 02:00N 39°47' W 075°27'0 0.0
2017-Dec-08 01:31N 39°47' W 075°27'0 0.0
2017-Dec-08 01:01N 39°47' W 075°27'0 0.0
2017-Dec-08 00:31N 39°47' W 075°27'0 0.0
2017-Dec-08 00:00N 39°47' W 075°27'0 0.0
2017-Dec-07 23:30N 39°47' W 075°27'0 0.0
2017-Dec-07 23:00N 39°47' W 075°27'0 0.0
2017-Dec-07 22:30N 39°47' W 075°27'0 0.0
2017-Dec-07 22:00N 39°47' W 075°27'0 0.0
2017-Dec-07 21:31N 39°47' W 075°27'0 0.0
2017-Dec-07 21:00N 39°47' W 075°27'0 0.0
2017-Dec-07 20:30N 39°47' W 075°27'0 0.0
2017-Dec-07 20:00N 39°47' W 075°27'0 0.0
2017-Dec-07 19:30N 39°47' W 075°27'0 0.0
2017-Dec-07 19:00N 39°47' W 075°27'0 0.0
2017-Dec-07 18:30N 39°47' W 075°27'0 0.0
2017-Dec-07 18:00N 39°47' W 075°27'0 0.0
2017-Dec-07 17:30N 39°47' W 075°27'0 0.0
2017-Dec-07 17:00N 39°47' W 075°27'0 0.0
2017-Dec-07 16:30N 39°47' W 075°27'0 0.0
2017-Dec-07 16:00N 39°47' W 075°27'0 0.0
2017-Dec-07 15:30N 39°47' W 075°27'  
Track history (hours):
 
Tides and Currents Weather Stations Pressure Air Temp Water Temp Dewpoint Dewpoint Depression Visibility Wind Speed Wind Dir Waves Ship Positions

Elizabeth Ann

Owner: ATLANTIC GULF TOWING LLC, Chesapeake, VA. More information available from US FCC via Universal Licensing System and Coast Guard Vessel Documentation Center.

Last reported at 2017-Dec-17 15:00 UTC. Time now 2017-Dec-17 15:31 UTC.
Position N 39°43' W 075°32'.

Length 32 m; draft 4 m.

Type: Tug. MMSI: 366773150.

Date/timePositionNaut miles runAvg speedWind from/ knotsBaromVisibWave heightAir tempDewpointWater temp
2017-Dec-17 15:00N 39°43' W 075°32'0 0.0
2017-Dec-17 14:30N 39°43' W 075°32'0 0.2
2017-Dec-17 14:01N 39°43' W 075°31'0 0.0
2017-Dec-17 13:30N 39°43' W 075°31'1 1.2
2017-Dec-17 13:00N 39°43' W 075°31'4 7.5
2017-Dec-17 12:30N 39°46' W 075°28'1 1.2
2017-Dec-17 12:00N 39°47' W 075°28'1 1.1
2017-Dec-17 11:30N 39°46' W 075°28'1 3.0
2017-Dec-17 11:00N 39°45' W 075°29'2 3.9
2017-Dec-17 10:31N 39°43' W 075°30'3 5.2
2017-Dec-17 10:01N 39°41' W 075°31'3 5.1
2017-Dec-17 09:30N 39°39' W 075°33'3 5.1
2017-Dec-17 09:01N 39°36' W 075°34'3 6.1
2017-Dec-17 08:30N 39°34' W 075°33'3 5.8
2017-Dec-17 08:00N 39°31' W 075°33'3 5.8
2017-Dec-17 07:30N 39°28' W 075°34'3 6.0
2017-Dec-17 07:00N 39°25' W 075°31'3 6.2
2017-Dec-17 06:30N 39°23' W 075°29'3 6.6
2017-Dec-17 06:01N 39°21' W 075°26'3 6.7
2017-Dec-17 05:30N 39°18' W 075°23'3 7.0
2017-Dec-17 05:00N 39°16' W 075°20'4 7.2
2017-Dec-17 04:30N 39°13' W 075°17'4 7.4
2017-Dec-17 04:00N 39°09' W 075°15'4 7.5
2017-Dec-17 03:31N 39°06' W 075°12'4 7.5
2017-Dec-17 03:00N 39°03' W 075°10'4 7.2
2017-Dec-17 02:30N 38°59' W 075°09'1 2.5
2017-Dec-17 02:00N 38°58' W 075°10'2 4.0
2017-Dec-17 01:30N 39°00' W 075°09'3 5.2
2017-Dec-17 01:01N 39°03' W 075°10'3 5.0
2017-Dec-17 00:30N 39°05' W 075°11'2 4.6
2017-Dec-17 00:00N 39°07' W 075°13'2 4.6
2017-Dec-16 23:30N 39°09' W 075°14'2 4.6
2017-Dec-16 23:00N 39°11' W 075°16'3 5.0
2017-Dec-16 22:30N 39°13' W 075°17'3 6.0
2017-Dec-16 22:00N 39°15' W 075°20'3 6.5
2017-Dec-16 21:30N 39°18' W 075°23'4 7.4
2017-Dec-16 21:00N 39°20' W 075°26'4 7.7
2017-Dec-16 20:30N 39°23' W 075°29'4 7.9
2017-Dec-16 20:00N 39°26' W 075°32'4 7.1
2017-Dec-16 19:30N 39°30' W 075°34'4 7.5
2017-Dec-16 19:00N 39°33' W 075°33'4 7.3
2017-Dec-16 18:30N 39°37' W 075°35'3 6.2
2017-Dec-16 18:00N 39°39' W 075°33'3 6.1
2017-Dec-16 17:30N 39°42' W 075°31'3 5.5
2017-Dec-16 17:00N 39°45' W 075°30'2 4.8
2017-Dec-16 16:31N 39°47' W 075°28'2 4.1
2017-Dec-16 16:01N 39°48' W 075°26'2 4.3
2017-Dec-16 15:30N 39°49' W 075°23'2 3.6
2017-Dec-16 15:01N 39°50' W 075°22'2 3.4
2017-Dec-16 14:30N 39°51' W 075°20'1 1.9
2017-Dec-16 14:00N 39°51' W 075°21'1 1.8
2017-Dec-16 13:29N 39°50' W 075°22'3 6.5
2017-Dec-16 12:58N 39°48' W 075°25'2 4.2
2017-Dec-16 12:26N 39°47' W 075°27'4 9.8
2017-Dec-16 11:59N 39°43' W 075°30'3 5.3
2017-Dec-16 11:30N 39°40' W 075°31'4 8.1
2017-Dec-16 11:00N 39°37' W 075°35'4 8.0
2017-Dec-16 10:30N 39°34' W 075°33'4 7.3
2017-Dec-16 10:00N 39°30' W 075°33'3 6.6
2017-Dec-16 09:30N 39°27' W 075°33'3 6.6
2017-Dec-16 09:00N 39°24' W 075°30'3 5.9
2017-Dec-16 08:30N 39°22' W 075°28'3 5.7
2017-Dec-16 07:59N 39°20' W 075°25'2 4.9
2017-Dec-16 07:30N 39°18' W 075°23'3 5.1
2017-Dec-16 07:00N 39°16' W 075°21'3 6.1
2017-Dec-16 06:27N 39°14' W 075°18'3 6.5
2017-Dec-16 05:58N 39°11' W 075°16'2 4.9
2017-Dec-16 05:30N 39°09' W 075°15'4 6.9
2017-Dec-16 04:59N 39°06' W 075°12'2 4.6
2017-Dec-16 04:30N 39°04' W 075°11'3 5.2
2017-Dec-16 04:00N 39°02' W 075°09'3 5.9
2017-Dec-16 03:30N 38°59' W 075°10'1 1.0
2017-Dec-16 02:57N 38°59' W 075°09'2 4.4
2017-Dec-16 02:30N 39°00' W 075°09'3 6.3
2017-Dec-16 02:00N 39°03' W 075°10'3 5.9
2017-Dec-16 01:30N 39°06' W 075°12'3 5.4
2017-Dec-16 01:00N 39°08' W 075°14'2 4.9
2017-Dec-16 00:30N 39°10' W 075°16'2 4.3
2017-Dec-16 00:00N 39°12' W 075°17'2 4.3
2017-Dec-15 23:30N 39°14' W 075°18'2 4.6
2017-Dec-15 23:00N 39°16' W 075°20'2 4.7
2017-Dec-15 22:30N 39°17' W 075°22'3 5.2
2017-Dec-15 22:00N 39°19' W 075°25'3 6.0
2017-Dec-15 21:30N 39°22' W 075°27'3 6.8
2017-Dec-15 21:00N 39°24' W 075°30'4 7.3
2017-Dec-15 20:30N 39°27' W 075°33'4 7.5
2017-Dec-15 20:00N 39°31' W 075°33'4 7.4
2017-Dec-15 19:30N 39°34' W 075°33'4 7.3
2017-Dec-15 19:00N 39°38' W 075°34'4 7.3
2017-Dec-15 18:30N 39°41' W 075°31'4 7.1
2017-Dec-15 18:00N 39°44' W 075°30'3 6.0
2017-Dec-15 17:30N 39°47' W 075°28'1 2.7
2017-Dec-15 17:00N 39°47' W 075°27'0 0.1
2017-Dec-15 16:30N 39°47' W 075°27'0 0.1
2017-Dec-15 16:00N 39°47' W 075°27'0 0.0
2017-Dec-15 15:30N 39°47' W 075°27'0 0.0
2017-Dec-15 15:00N 39°47' W 075°27'0 0.1
2017-Dec-15 14:30N 39°47' W 075°27'1 2.3
2017-Dec-15 14:00N 39°46' W 075°28'0 0.4
2017-Dec-15 13:31N 39°47' W 075°28'1 3.0
2017-Dec-15 13:00N 39°46' W 075°29'3 6.4
2017-Dec-15 12:30N 39°43' W 075°31'3 6.6
2017-Dec-15 12:00N 39°40' W 075°32'3 6.5
2017-Dec-15 11:30N 39°37' W 075°35'3 6.5
2017-Dec-15 11:00N 39°34' W 075°33'3 5.8
2017-Dec-15 10:30N 39°31' W 075°33'3 5.6
2017-Dec-15 10:00N 39°28' W 075°34'3 5.2
2017-Dec-15 09:30N 39°26' W 075°32'3 5.5
2017-Dec-15 09:00N 39°24' W 075°30'3 5.4
2017-Dec-15 08:30N 39°22' W 075°28'3 5.3
2017-Dec-15 08:00N 39°20' W 075°25'2 5.0
2017-Dec-15 07:30N 39°18' W 075°23'2 4.8
2017-Dec-15 07:00N 39°17' W 075°21'2 4.9
2017-Dec-15 06:30N 39°15' W 075°19'2 4.5
2017-Dec-15 06:00N 39°13' W 075°17'2 4.4
2017-Dec-15 05:30N 39°11' W 075°16'2 4.5
2017-Dec-15 05:00N 39°09' W 075°15'2 4.7
2017-Dec-15 04:30N 39°07' W 075°13'2 4.6
2017-Dec-15 04:01N 39°05' W 075°11'7 4.5
2017-Dec-15 02:28N 38°58' W 075°09'0 0.0
2017-Dec-15 00:20N 38°58' W 075°09'25 4.3
2017-Dec-14 18:31N 39°20' W 075°25'3 6.5
2017-Dec-14 18:00N 39°22' W 075°28'3 6.4
2017-Dec-14 17:30N 39°25' W 075°31'4 7.1
2017-Dec-14 17:00N 39°28' W 075°34'3 6.6
2017-Dec-14 16:31N 39°31' W 075°33'3 6.5
2017-Dec-14 16:01N 39°34' W 075°33'5 5.1
2017-Dec-14 15:00N 39°39' W 075°33'2 4.9
2017-Dec-14 14:30N 39°41' W 075°31'2 4.6
2017-Dec-14 14:00N 39°43' W 075°30'2 4.0
2017-Dec-14 13:30N 39°45' W 075°29'2 3.6
2017-Dec-14 13:00N 39°47' W 075°28'1 1.2
2017-Dec-14 12:30N 39°47' W 075°27'0 0.3
2017-Dec-14 12:00N 39°47' W 075°27'3 5.4
2017-Dec-14 11:30N 39°49' W 075°24'2 4.6
2017-Dec-14 11:00N 39°50' W 075°22'2 3.1
2017-Dec-14 10:30N 39°51' W 075°20'0 0.0
2017-Dec-14 10:00N 39°51' W 075°20'0 0.0
2017-Dec-14 09:30N 39°51' W 075°20'0 0.0
2017-Dec-14 09:01N 39°51' W 075°20'0 0.0
2017-Dec-14 08:30N 39°51' W 075°20'0 0.0
2017-Dec-14 08:01N 39°51' W 075°20'0 0.0
2017-Dec-14 07:30N 39°51' W 075°20'0 0.0
2017-Dec-14 07:00N 39°51' W 075°20'0 0.0
2017-Dec-14 06:31N 39°51' W 075°20'0 0.0
2017-Dec-14 06:00N 39°51' W 075°20'0 0.0
2017-Dec-14 05:30N 39°51' W 075°20'0 0.0
2017-Dec-14 05:00N 39°51' W 075°20'0 0.0
2017-Dec-14 04:30N 39°51' W 075°20'0 0.0
2017-Dec-14 04:00N 39°51' W 075°20'0 0.0
2017-Dec-14 03:30N 39°51' W 075°20'0 0.0
2017-Dec-14 03:00N 39°51' W 075°20'0 0.0
2017-Dec-14 02:30N 39°51' W 075°20'0 0.0
2017-Dec-14 02:00N 39°51' W 075°20'0 0.0
2017-Dec-14 01:30N 39°51' W 075°20'0 0.0
2017-Dec-14 01:00N 39°51' W 075°20'0 0.0
2017-Dec-14 00:30N 39°51' W 075°20'0 0.0
2017-Dec-14 00:00N 39°51' W 075°20'0 0.0
2017-Dec-13 23:30N 39°51' W 075°20'0 0.0
2017-Dec-13 23:00N 39°51' W 075°20'0 0.0
2017-Dec-13 22:30N 39°51' W 075°20'0 0.0
2017-Dec-13 22:00N 39°51' W 075°20'0 0.0
2017-Dec-13 21:30N 39°51' W 075°20'0 0.0
2017-Dec-13 21:01N 39°51' W 075°20'0 0.0
2017-Dec-13 20:30N 39°51' W 075°20'0 0.0
2017-Dec-13 20:00N 39°51' W 075°20'0 0.0
2017-Dec-13 19:30N 39°51' W 075°20'0 0.0
2017-Dec-13 19:00N 39°51' W 075°20'0 0.2
2017-Dec-13 18:31N 39°51' W 075°20'1 1.2
2017-Dec-13 18:00N 39°51' W 075°19'0 0.1
2017-Dec-13 17:30N 39°51' W 075°19'0 0.0
2017-Dec-13 17:00N 39°51' W 075°19'0 0.0
2017-Dec-13 16:30N 39°51' W 075°19'1 1.2
2017-Dec-13 16:00N 39°51' W 075°20'2 4.6
2017-Dec-13 15:30N 39°50' W 075°23'3 5.7
2017-Dec-13 15:01N 39°48' W 075°25'2 4.6
2017-Dec-13 14:30N 39°47' W 075°28'3 6.2
2017-Dec-13 14:00N 39°44' W 075°30'3 6.3
2017-Dec-13 13:30N 39°41' W 075°31'3 6.4
2017-Dec-13 13:00N 39°38' W 075°34'3 5.9
2017-Dec-13 12:30N 39°35' W 075°34'3 6.3
2017-Dec-13 12:00N 39°32' W 075°33'4 7.2
2017-Dec-13 11:30N 39°29' W 075°34'3 6.5
2017-Dec-13 11:00N 39°26' W 075°32'3 6.5
2017-Dec-13 10:30N 39°24' W 075°29'3 7.0
2017-Dec-13 10:00N 39°21' W 075°26'4 7.0
2017-Dec-13 09:30N 39°18' W 075°23'4 7.1
2017-Dec-13 09:00N 39°16' W 075°20'3 5.7
2017-Dec-13 08:30N 39°13' W 075°18'3 6.7
2017-Dec-13 08:00N 39°10' W 075°16'3 5.6
2017-Dec-13 07:30N 39°08' W 075°14'2 5.0
2017-Dec-13 07:00N 39°06' W 075°12'6 1.8
2017-Dec-13 03:27N 39°00' W 075°09'2 3.0
2017-Dec-13 02:57N 39°02' W 075°10'3 6.0
2017-Dec-13 02:30N 39°04' W 075°11'3 6.7
2017-Dec-13 02:00N 39°07' W 075°13'3 6.3
2017-Dec-13 01:30N 39°10' W 075°15'3 5.9
2017-Dec-13 01:00N 39°12' W 075°17'3 5.4
2017-Dec-13 00:30N 39°15' W 075°19'2 4.9
2017-Dec-13 00:00N 39°16' W 075°21'2 4.7
2017-Dec-12 23:30N 39°18' W 075°23'2 4.7
2017-Dec-12 23:00N 39°20' W 075°25'2 4.3
2017-Dec-12 22:30N 39°21' W 075°27'2 4.3
2017-Dec-12 22:00N 39°23' W 075°29'2 4.3
2017-Dec-12 21:30N 39°25' W 075°31'2 4.3
2017-Dec-12 21:00N 39°26' W 075°32'2 4.4
2017-Dec-12 20:30N 39°28' W 075°34'2 4.3
2017-Dec-12 20:00N 39°30' W 075°33'2 5.0
2017-Dec-12 19:30N 39°33' W 075°33'2 4.9
2017-Dec-12 19:00N 39°35' W 075°34'3 5.2
2017-Dec-12 18:30N 39°38' W 075°35'3 5.7
2017-Dec-12 18:00N 39°40' W 075°32'3 6.2
2017-Dec-12 17:31N 39°43' W 075°31'3 6.5
2017-Dec-12 17:00N 39°46' W 075°29'2 3.4
2017-Dec-12 16:30N 39°47' W 075°27'4 8.8
2017-Dec-12 16:00N 39°49' W 075°23'2 4.1
2017-Dec-12 15:25N 39°51' W 075°20'1 1.2
2017-Dec-12 15:00N 39°51' W 075°21'2 3.7
2017-Dec-12 14:28N 39°49' W 075°23'4 8.9
2017-Dec-12 13:59N 39°47' W 075°27'1 1.9
2017-Dec-12 13:30N 39°46' W 075°28'4 8.8
2017-Dec-12 13:00N 39°42' W 075°31'3 6.9
2017-Dec-12 12:30N 39°39' W 075°33'2 4.6
2017-Dec-12 12:00N 39°38' W 075°35'3 6.7
2017-Dec-12 11:30N 39°34' W 075°33'3 6.5
2017-Dec-12 11:00N 39°31' W 075°33'3 6.8
2017-Dec-12 10:30N 39°28' W 075°34'4 7.2
2017-Dec-12 10:00N 39°25' W 075°31'4 7.5
2017-Dec-12 09:30N 39°22' W 075°28'4 7.5
2017-Dec-12 08:59N 39°19' W 075°24'5 9.2
2017-Dec-12 08:27N 39°16' W 075°20'3 6.2
2017-Dec-12 07:58N 39°13' W 075°18'4 7.0
2017-Dec-12 07:27N 39°10' W 075°16'3 6.3
2017-Dec-12 06:55N 39°07' W 075°13'3 6.1
2017-Dec-12 06:28N 39°05' W 075°11'3 6.0
2017-Dec-12 05:59N 39°02' W 075°10'3 6.2
2017-Dec-12 05:30N 38°59' W 075°09'1 2.1
2017-Dec-12 04:55N 38°58' W 075°10'2 2.6
2017-Dec-12 04:13N 39°00' W 075°09'1 2.9
2017-Dec-12 03:55N 39°01' W 075°09'1 3.6
2017-Dec-12 03:30N 39°02' W 075°10'2 4.4
2017-Dec-12 03:00N 39°04' W 075°11'3 5.6
2017-Dec-12 02:30N 39°07' W 075°13'3 5.7
2017-Dec-12 02:00N 39°09' W 075°15'3 5.9
2017-Dec-12 01:30N 39°12' W 075°17'3 5.9
2017-Dec-12 01:00N 39°14' W 075°18'3 5.6
2017-Dec-12 00:30N 39°16' W 075°21'3 5.2
2017-Dec-12 00:00N 39°18' W 075°23'2 4.9
2017-Dec-11 23:30N 39°20' W 075°25'2 4.5
2017-Dec-11 23:00N 39°22' W 075°27'2 4.2
2017-Dec-11 22:30N 39°23' W 075°29'2 4.0
2017-Dec-11 22:00N 39°25' W 075°31'2 3.8
2017-Dec-11 21:30N 39°26' W 075°32'2 3.6
2017-Dec-11 21:00N 39°28' W 075°34'2 3.8
2017-Dec-11 20:30N 39°30' W 075°34'2 4.2
2017-Dec-11 20:00N 39°31' W 075°33'2 4.7
2017-Dec-11 19:30N 39°34' W 075°33'3 5.2
2017-Dec-11 19:00N 39°36' W 075°34'3 5.1
2017-Dec-11 18:30N 39°39' W 075°33'3 6.0
2017-Dec-11 18:00N 39°41' W 075°31'3 6.5
2017-Dec-11 17:30N 39°44' W 075°30'3 5.5
2017-Dec-11 17:00N 39°46' W 075°28'1 1.4
2017-Dec-11 16:30N 39°47' W 075°27'0 0.0
2017-Dec-11 16:01N 39°47' W 075°27'0 0.0
2017-Dec-11 15:30N 39°47' W 075°27'0 0.0
2017-Dec-11 15:01N 39°47' W 075°27'1 1.2
2017-Dec-11 14:30N 39°47' W 075°27'0 0.0
2017-Dec-11 14:01N 39°47' W 075°27'0 0.0
2017-Dec-11 13:30N 39°47' W 075°27'0 0.0
2017-Dec-11 13:00N 39°47' W 075°27'1 1.5
2017-Dec-11 12:31N 39°47' W 075°27'0 0.1
2017-Dec-11 12:00N 39°47' W 075°27'0 0.0
2017-Dec-11 11:30N 39°47' W 075°27'0 0.0
2017-Dec-11 11:00N 39°47' W 075°27'0 0.0
2017-Dec-11 10:30N 39°47' W 075°27'0 0.0
2017-Dec-11 10:00N 39°47' W 075°27'0 0.2
2017-Dec-11 09:30N 39°47' W 075°27'1 1.1
2017-Dec-11 09:00N 39°47' W 075°27'0 0.3
2017-Dec-11 08:31N 39°47' W 075°27'0 0.9
2017-Dec-11 08:00N 39°47' W 075°27'0 0.2
2017-Dec-11 07:30N 39°47' W 075°27'0 0.1
2017-Dec-11 07:00N 39°47' W 075°27'0 0.0
2017-Dec-11 06:30N 39°47' W 075°27'0 0.0
2017-Dec-11 06:00N 39°47' W 075°27'0 0.0
2017-Dec-11 05:30N 39°47' W 075°27'0 0.0
2017-Dec-11 05:00N 39°47' W 075°27'1 1.8
2017-Dec-11 04:30N 39°47' W 075°26'3 6.0
2017-Dec-11 04:00N 39°49' W 075°23'0 0.8
2017-Dec-11 03:30N 39°49' W 075°23'2 3.6
2017-Dec-11 03:00N 39°48' W 075°25'1 1.7
2017-Dec-11 02:31N 39°48' W 075°26'2 3.8
2017-Dec-11 02:00N 39°47' W 075°27'1 1.6
2017-Dec-11 01:31N 39°46' W 075°28'1 1.8
2017-Dec-11 01:01N 39°47' W 075°28'2 4.0
2017-Dec-11 00:30N 39°48' W 075°25'2 4.5
2017-Dec-11 00:00N 39°49' W 075°23'2 4.0
2017-Dec-10 23:30N 39°51' W 075°21'1 1.5
2017-Dec-10 23:00N 39°51' W 075°20'0 0.1
2017-Dec-10 22:30N 39°51' W 075°20'3 6.4
2017-Dec-10 22:00N 39°49' W 075°23'0 0.3
2017-Dec-10 21:30N 39°49' W 075°23'2 3.5
2017-Dec-10 21:01N 39°48' W 075°25'3 6.3
2017-Dec-10 20:30N 39°46' W 075°28'4 8.4
2017-Dec-10 20:00N 39°42' W 075°31'5 9.2
2017-Dec-10 19:30N 39°38' W 075°34'4 8.5
2017-Dec-10 19:00N 39°34' W 075°33'4 8.5
2017-Dec-10 18:30N 39°30' W 075°33'4 8.1
2017-Dec-10 18:00N 39°26' W 075°32'4 7.9
2017-Dec-10 17:30N 39°23' W 075°29'4 7.3
2017-Dec-10 17:00N 39°20' W 075°26'4 7.1
2017-Dec-10 16:30N 39°18' W 075°23'3 6.9
2017-Dec-10 16:00N 39°15' W 075°19'3 6.6
2017-Dec-10 15:30N 39°12' W 075°17'3 7.1
2017-Dec-10 15:01N 39°09' W 075°15'4 7.1
2017-Dec-10 14:30N 39°07' W 075°12'3 6.6
2017-Dec-10 14:00N 39°03' W 075°10'3 6.8
2017-Dec-10 13:31N 39°00' W 075°09'2 4.3
2017-Dec-10 13:00N 38°58' W 075°10'1 1.2
2017-Dec-10 12:30N 38°59' W 075°09'1 1.6
2017-Dec-10 12:00N 38°58' W 075°09'1 1.8
2017-Dec-10 11:30N 38°59' W 075°09'2 4.6
2017-Dec-10 11:00N 39°01' W 075°09'3 6.0
2017-Dec-10 10:30N 39°04' W 075°11'3 5.9
2017-Dec-10 10:01N 39°07' W 075°13'3 5.7
2017-Dec-10 09:30N 39°09' W 075°15'3 5.5
2017-Dec-10 09:00N 39°11' W 075°17'2 4.9
2017-Dec-10 08:30N 39°14' W 075°18'2 4.2
2017-Dec-10 08:00N 39°15' W 075°20'2 3.9
2017-Dec-10 07:30N 39°17' W 075°21'2 3.8
2017-Dec-10 07:01N 39°18' W 075°23'2 4.1
2017-Dec-10 06:31N 39°20' W 075°25'2 3.7
2017-Dec-10 06:00N 39°21' W 075°26'2 4.1
2017-Dec-10 05:30N 39°22' W 075°28'2 4.1
2017-Dec-10 05:01N 39°24' W 075°30'2 4.8
2017-Dec-10 04:30N 39°26' W 075°32'3 5.5
2017-Dec-10 04:00N 39°28' W 075°34'3 6.0
2017-Dec-10 03:30N 39°31' W 075°33'3 5.9
2017-Dec-10 03:00N 39°34' W 075°33'3 6.2
2017-Dec-10 02:30N 39°37' W 075°35'3 5.8
2017-Dec-10 02:00N 39°39' W 075°33'3 6.0
2017-Dec-10 01:30N 39°42' W 075°31'3 5.6
2017-Dec-10 01:00N 39°45' W 075°30'2 4.9
2017-Dec-10 00:31N 39°47' W 075°28'0 0.4
2017-Dec-10 00:00N 39°47' W 075°27'1 1.7
2017-Dec-09 23:30N 39°47' W 075°27'0 0.0
2017-Dec-09 23:00N 39°47' W 075°27'0 0.0
2017-Dec-09 22:30N 39°47' W 075°27'0 0.0
2017-Dec-09 22:00N 39°47' W 075°27'0 0.0
2017-Dec-09 21:30N 39°47' W 075°27'0 0.0
2017-Dec-09 21:00N 39°47' W 075°27'1 1.0
2017-Dec-09 20:30N 39°47' W 075°27'0 0.0
2017-Dec-09 20:00N 39°47' W 075°27'0 0.1
2017-Dec-09 19:31N 39°47' W 075°27'0 0.4
2017-Dec-09 19:00N 39°47' W 075°27'0 0.0
2017-Dec-09 18:30N 39°47' W 075°27'0 0.0
2017-Dec-09 18:00N 39°47' W 075°27'0 0.0
2017-Dec-09 17:30N 39°47' W 075°27'0 0.0
2017-Dec-09 17:00N 39°47' W 075°27'0 0.0
2017-Dec-09 16:30N 39°47' W 075°27'0 0.0
2017-Dec-09 16:00N 39°47' W 075°27'0 0.0
2017-Dec-09 15:30N 39°47' W 075°27'0 0.0
2017-Dec-09 15:00N 39°47' W 075°27'0 0.3
2017-Dec-09 14:30N 39°47' W 075°27'0 0.0
2017-Dec-09 14:00N 39°47' W 075°27'0 0.0
2017-Dec-09 13:31N 39°47' W 075°27'0 0.0
2017-Dec-09 13:00N 39°47' W 075°27'0 0.0
2017-Dec-09 12:30N 39°47' W 075°27'0 0.0
2017-Dec-09 12:01N 39°47' W 075°27'0 0.2
2017-Dec-09 11:31N 39°47' W 075°27'0 0.1
2017-Dec-09 11:00N 39°47' W 075°27'0 0.1
2017-Dec-09 10:30N 39°47' W 075°27'0 0.0
2017-Dec-09 10:00N 39°47' W 075°27'0 0.0
2017-Dec-09 09:30N 39°47' W 075°27'0 0.0
2017-Dec-09 09:00N 39°47' W 075°27'0 0.0
2017-Dec-09 08:30N 39°47' W 075°27'0 0.0
2017-Dec-09 08:01N 39°47' W 075°27'0 0.0
2017-Dec-09 07:31N 39°47' W 075°27'0 0.0
2017-Dec-09 07:00N 39°47' W 075°27'0 0.0
2017-Dec-09 06:31N 39°47' W 075°27'0 0.0
2017-Dec-09 06:01N 39°47' W 075°27'0 0.1
2017-Dec-09 05:30N 39°47' W 075°27'0 0.2
2017-Dec-09 05:00N 39°47' W 075°27'0 0.0
2017-Dec-09 04:31N 39°47' W 075°27'0 0.0
2017-Dec-09 04:00N 39°47' W 075°27'0 0.0
2017-Dec-09 03:30N 39°47' W 075°27'0 0.0
2017-Dec-09 03:00N 39°47' W 075°27'0 0.0
2017-Dec-09 02:30N 39°47' W 075°27'0 0.0
2017-Dec-09 02:00N 39°47' W 075°27'0 0.0
2017-Dec-09 01:30N 39°47' W 075°27'0 0.0
2017-Dec-09 01:00N 39°47' W 075°27'0 0.0
2017-Dec-09 00:31N 39°47' W 075°27'0 0.0
2017-Dec-09 00:00N 39°47' W 075°27'0 0.0
2017-Dec-08 23:30N 39°47' W 075°27'0 0.1
2017-Dec-08 23:00N 39°47' W 075°27'0 0.2
2017-Dec-08 22:30N 39°47' W 075°27'0 0.0
2017-Dec-08 22:00N 39°47' W 075°27'0 0.0
2017-Dec-08 21:31N 39°47' W 075°27'0 0.0
2017-Dec-08 21:00N 39°47' W 075°27'0 0.0
2017-Dec-08 20:30N 39°47' W 075°27'0 0.0
2017-Dec-08 20:00N 39°47' W 075°27'0 0.0
2017-Dec-08 19:30N 39°47' W 075°27'0 0.0
2017-Dec-08 19:00N 39°47' W 075°27'0 0.0
2017-Dec-08 18:31N 39°47' W 075°27'0 0.0
2017-Dec-08 18:01N 39°47' W 075°27'0 0.0
2017-Dec-08 17:31N 39°47' W 075°27'0 0.0
2017-Dec-08 17:01N 39°47' W 075°27'0 0.2
2017-Dec-08 16:30N 39°47' W 075°27'0 0.1
2017-Dec-08 16:00N 39°47' W 075°27'0 0.0
2017-Dec-08 15:30N 39°47' W 075°27'0 0.0
2017-Dec-08 15:01N 39°47' W 075°27'0 0.3
2017-Dec-08 14:30N 39°47' W 075°27'0 0.2
2017-Dec-08 14:01N 39°47' W 075°27'2 4.0
2017-Dec-08 13:30N 39°48' W 075°25'3 5.8
2017-Dec-08 13:00N 39°50' W 075°22'2 4.2
2017-Dec-08 12:30N 39°51' W 075°20'1 1.9
2017-Dec-08 12:00N 39°51' W 075°21'2 4.1
2017-Dec-08 11:30N 39°49' W 075°23'2 4.7
2017-Dec-08 11:00N 39°48' W 075°26'1 2.1
2017-Dec-08 10:30N 39°47' W 075°27'0 0.0
2017-Dec-08 10:00N 39°47' W 075°27'0 0.0
2017-Dec-08 09:30N 39°47' W 075°27'0 0.0
2017-Dec-08 09:01N 39°47' W 075°27'0 0.0
2017-Dec-08 08:30N 39°47' W 075°27'0 0.0
2017-Dec-08 08:00N 39°47' W 075°27'0 0.0
2017-Dec-08 07:30N 39°47' W 075°27'0 0.0
2017-Dec-08 07:00N 39°47' W 075°27'0 0.0
2017-Dec-08 06:31N 39°47' W 075°27'0 0.0
2017-Dec-08 06:00N 39°47' W 075°27'0 0.0
2017-Dec-08 05:30N 39°47' W 075°27'0 0.0
2017-Dec-08 05:00N 39°47' W 075°27'0 0.0
2017-Dec-08 04:31N 39°47' W 075°27'0 0.0
2017-Dec-08 04:00N 39°47' W 075°27'0 0.0
2017-Dec-08 03:31N 39°47' W 075°27'0 0.0
2017-Dec-08 03:00N 39°47' W 075°27'0 0.0
2017-Dec-08 02:30N 39°47' W 075°27'0 0.0
2017-Dec-08 02:00N 39°47' W 075°27'0 0.0
2017-Dec-08 01:31N 39°47' W 075°27'0 0.0
2017-Dec-08 01:01N 39°47' W 075°27'0 0.0
2017-Dec-08 00:31N 39°47' W 075°27'0 0.0
2017-Dec-08 00:00N 39°47' W 075°27'0 0.0
2017-Dec-07 23:30N 39°47' W 075°27'0 0.0
2017-Dec-07 23:00N 39°47' W 075°27'0 0.0
2017-Dec-07 22:30N 39°47' W 075°27'0 0.0
2017-Dec-07 22:00N 39°47' W 075°27'0 0.0
2017-Dec-07 21:31N 39°47' W 075°27'0 0.0
2017-Dec-07 21:00N 39°47' W 075°27'0 0.0
2017-Dec-07 20:30N 39°47' W 075°27'0 0.0
2017-Dec-07 20:00N 39°47' W 075°27'0 0.0
2017-Dec-07 19:30N 39°47' W 075°27'0 0.0
2017-Dec-07 19:00N 39°47' W 075°27'0 0.0
2017-Dec-07 18:30N 39°47' W 075°27'0 0.0
2017-Dec-07 18:00N 39°47' W 075°27'0 0.0
2017-Dec-07 17:30N 39°47' W 075°27'0 0.0
2017-Dec-07 17:00N 39°47' W 075°27'0 0.0
2017-Dec-07 16:30N 39°47' W 075°27'0 0.0
2017-Dec-07 16:00N 39°47' W 075°27'0 0.0
2017-Dec-07 15:30N 39°47' W 075°27'  

Dump ship's entire track history